createdAt,value
2018-11-21T00:00:13.060Z,22.20
2018-11-21T00:02:41.588Z,22.83
2018-11-21T00:05:10.065Z,23.37
2018-11-21T00:07:38.607Z,29.00
2018-11-21T00:10:09.529Z,26.87
2018-11-21T00:12:38.891Z,25.67
2018-11-21T00:15:09.277Z,24.30
2018-11-21T00:17:38.030Z,27.67
2018-11-21T00:20:08.102Z,28.20
2018-11-21T00:22:36.667Z,26.00
2018-11-21T00:25:05.279Z,24.17
2018-11-21T00:27:34.084Z,24.77
2018-11-21T00:30:02.719Z,22.13
2018-11-21T00:32:31.315Z,23.60
2018-11-21T00:34:59.826Z,25.17
2018-11-21T00:37:28.402Z,24.73
2018-11-21T00:39:56.969Z,21.60
2018-11-21T00:42:25.508Z,20.83
2018-11-21T00:44:54.043Z,22.47
2018-11-21T00:47:22.554Z,28.37
2018-11-21T00:49:51.174Z,32.23
2018-11-21T00:52:19.860Z,29.27
2018-11-21T00:54:48.427Z,29.00
2018-11-21T00:57:17.042Z,26.10
2018-11-21T00:59:45.584Z,23.90
2018-11-21T01:02:14.277Z,24.47
2018-11-21T01:04:42.768Z,24.13
2018-11-21T01:07:11.749Z,25.73
2018-11-21T01:09:41.651Z,24.07
2018-11-21T01:12:10.389Z,22.80
2018-11-21T01:14:39.050Z,27.20
2018-11-21T01:17:07.577Z,27.60
2018-11-21T01:19:36.208Z,26.77
2018-11-21T01:22:04.726Z,23.00
2018-11-21T01:24:33.658Z,20.87
2018-11-21T01:27:02.217Z,19.27
2018-11-21T01:29:30.685Z,20.77
2018-11-21T01:31:59.556Z,21.53
2018-11-21T01:34:28.162Z,19.20
2018-11-21T01:36:56.703Z,21.57
2018-11-21T01:39:25.197Z,20.03
2018-11-21T01:41:53.778Z,19.20
2018-11-21T01:44:22.312Z,19.73
2018-11-21T01:46:50.846Z,18.20
2018-11-21T01:49:19.442Z,18.80
2018-11-21T01:51:48.044Z,15.67
2018-11-21T01:54:16.634Z,19.47
2018-11-21T01:56:45.298Z,18.93
2018-11-21T01:59:13.903Z,17.57
2018-11-21T02:01:42.473Z,15.97
2018-11-21T02:04:10.993Z,17.23
2018-11-21T02:06:39.634Z,15.80
2018-11-21T02:09:10.103Z,16.47
2018-11-21T02:11:38.936Z,14.83
2018-11-21T02:14:07.481Z,15.50
2018-11-21T02:16:35.997Z,13.67
2018-11-21T02:19:05.213Z,13.23
2018-11-21T02:21:33.793Z,12.30
2018-11-21T02:24:02.380Z,15.90
2018-11-21T02:26:31.141Z,14.97
2018-11-21T02:28:59.887Z,14.60
2018-11-21T02:31:28.448Z,13.77
2018-11-21T02:33:57.100Z,11.33
2018-11-21T02:36:25.686Z,11.83
2018-11-21T02:38:54.279Z,12.37
2018-11-21T02:41:22.914Z,13.27
2018-11-21T02:43:51.544Z,12.50
2018-11-21T02:46:20.059Z,10.87
2018-11-21T02:48:49.124Z,11.30
2018-11-21T02:51:17.772Z,13.00
2018-11-21T02:53:46.429Z,15.17
2018-11-21T02:56:14.998Z,15.97
2018-11-21T02:58:43.628Z,14.10
2018-11-21T03:01:12.360Z,16.80
2018-11-21T03:03:40.994Z,13.43
2018-11-21T03:06:09.721Z,13.43
2018-11-21T03:08:38.539Z,14.30
2018-11-21T03:11:07.251Z,12.10
2018-11-21T03:13:35.939Z,12.53
2018-11-21T03:16:04.583Z,11.77
2018-11-21T03:18:33.284Z,12.80
2018-11-21T03:21:01.864Z,12.47
2018-11-21T03:23:30.346Z,10.97
2018-11-21T03:25:58.897Z,12.77
2018-11-21T03:28:27.476Z,9.97
2018-11-21T03:30:56.069Z,10.37
2018-11-21T03:33:24.991Z,10.77
2018-11-21T03:35:53.573Z,11.17
2018-11-21T03:38:22.255Z,12.10
2018-11-21T03:40:50.805Z,10.97
2018-11-21T03:43:19.402Z,11.23
2018-11-21T03:45:47.915Z,12.03
2018-11-21T03:48:16.635Z,13.90
2018-11-21T03:50:45.119Z,20.57
2018-11-21T03:53:13.667Z,14.27
2018-11-21T03:55:42.304Z,18.20
2018-11-21T03:58:11.250Z,15.90
2018-11-21T04:00:39.933Z,16.40
2018-11-21T04:03:08.500Z,18.10
2018-11-21T04:05:37.179Z,15.80
2018-11-21T04:08:06.232Z,14.03
2018-11-21T04:10:34.966Z,12.80
2018-11-21T04:13:03.628Z,14.33
2018-11-21T04:15:32.375Z,15.93
2018-11-21T04:18:01.002Z,13.47
2018-11-21T04:20:29.735Z,16.53
2018-11-21T04:22:58.443Z,18.70
2018-11-21T04:25:27.316Z,15.73
2018-11-21T04:27:56.105Z,13.47
2018-11-21T04:30:24.845Z,17.90
2018-11-21T04:32:53.511Z,15.73
2018-11-21T04:35:22.460Z,19.20
2018-11-21T04:37:51.133Z,16.73
2018-11-21T04:40:19.741Z,17.53
2018-11-21T04:42:48.462Z,16.27
2018-11-21T04:45:16.991Z,17.47
2018-11-21T04:47:45.588Z,17.67
2018-11-21T04:50:14.224Z,16.37
2018-11-21T04:52:42.867Z,17.10
2018-11-21T04:55:11.498Z,15.73
2018-11-21T04:57:40.039Z,17.03
2018-11-21T05:00:10.266Z,17.67
2018-11-21T05:02:38.799Z,16.40
2018-11-21T05:05:08.817Z,16.40
2018-11-21T05:07:37.525Z,19.30
2018-11-21T05:10:07.407Z,28.37
2018-11-21T05:12:36.423Z,20.47
2018-11-21T05:15:05.234Z,20.53
2018-11-21T05:17:34.013Z,18.67
2018-11-21T05:20:02.717Z,22.93
2018-11-21T05:22:31.383Z,21.57
2018-11-21T05:25:19.383Z,19.33
2018-11-21T05:27:47.972Z,18.57
2018-11-21T05:30:16.465Z,28.73
2018-11-21T05:32:45.001Z,29.13
2018-11-21T05:35:13.647Z,22.07
2018-11-21T05:37:42.132Z,20.60
2018-11-21T05:40:11.202Z,21.70
2018-11-21T05:42:39.937Z,22.77
2018-11-21T05:45:09.418Z,21.60
2018-11-21T05:47:38.090Z,23.50
2018-11-21T05:50:11.302Z,21.80
2018-11-21T05:52:39.851Z,20.53
2018-11-21T05:55:08.609Z,18.20
2018-11-21T05:57:39.785Z,20.67
2018-11-21T06:00:10.019Z,21.23
2018-11-21T06:02:39.330Z,21.03
2018-11-21T06:05:08.700Z,19.93
2018-11-21T06:07:37.325Z,29.17
2018-11-21T06:10:09.053Z,18.63
2018-11-21T06:12:37.735Z,19.03
2018-11-21T06:15:25.678Z,17.03
2018-11-21T06:17:54.322Z,16.10
2018-11-21T06:20:22.852Z,14.97
2018-11-21T06:22:52.141Z,17.97
2018-11-21T06:25:20.729Z,17.17
2018-11-21T06:27:49.432Z,18.10
2018-11-21T06:30:17.961Z,17.07
2018-11-21T06:32:48.182Z,19.37
2018-11-21T06:35:16.809Z,14.77
2018-11-21T06:37:45.386Z,16.33
2018-11-21T06:40:15.330Z,17.97
2018-11-21T06:43:00.046Z,21.60
2018-11-21T06:45:29.547Z,21.23
2018-11-21T06:47:58.121Z,21.77
2018-11-21T06:50:27.070Z,18.87
2018-11-21T06:52:56.957Z,19.03
2018-11-21T06:55:25.483Z,26.17
2018-11-21T06:57:54.057Z,21.40
2018-11-21T07:00:22.737Z,21.23
2018-11-21T07:02:51.332Z,23.30
2018-11-21T07:05:19.849Z,24.43
2018-11-21T07:07:48.622Z,20.17
2018-11-21T07:10:17.363Z,23.90
2018-11-21T07:12:46.476Z,22.50
2018-11-21T07:15:15.004Z,19.90
2018-11-21T07:17:43.662Z,23.40
2018-11-21T07:20:14.097Z,26.57
2018-11-21T07:22:42.941Z,17.67
2018-11-21T07:25:19.803Z,18.63
2018-11-21T07:27:48.529Z,18.27
2018-11-21T07:30:17.900Z,43.03
2018-11-21T07:32:46.642Z,40.77
2018-11-21T07:35:18.061Z,26.30
2018-11-21T07:37:44.716Z,30.70
2018-11-21T07:40:14.548Z,28.27
2018-11-21T07:42:43.520Z,23.77
2018-11-21T07:45:16.055Z,26.50
2018-11-21T07:47:45.290Z,24.83
2018-11-21T07:50:18.980Z,23.87
2018-11-21T07:52:47.789Z,23.60
2018-11-21T07:55:16.651Z,22.47
2018-11-21T07:57:49.514Z,21.20
2018-11-21T08:01:20.676Z,23.60
2018-11-21T08:04:01.114Z,22.57
2018-11-21T08:06:41.781Z,21.70
2018-11-21T08:09:30.578Z,26.27
2018-11-21T08:12:16.048Z,24.40
2018-11-21T08:15:02.580Z,18.17
2018-11-21T08:17:48.770Z,26.67
2018-11-21T08:20:35.028Z,27.53
2018-11-21T08:23:23.124Z,24.07
2018-11-21T08:26:19.858Z,27.03
2018-11-21T08:28:48.478Z,23.13
2018-11-21T08:31:17.170Z,23.77
2018-11-21T08:33:45.785Z,20.90
2018-11-21T08:36:14.385Z,23.30
2018-11-21T08:38:43.420Z,26.53
2018-11-21T08:41:11.964Z,28.87
2018-11-21T08:43:40.741Z,26.70
2018-11-21T08:46:10.807Z,18.87
2018-11-21T08:48:39.369Z,18.47
2018-11-21T08:51:07.852Z,19.90
2018-11-21T08:53:36.852Z,29.33
2018-11-21T08:56:05.502Z,21.67
2018-11-21T08:58:34.162Z,20.43
2018-11-21T09:01:02.843Z,21.10
2018-11-21T09:03:31.346Z,20.27
2018-11-21T09:06:04.281Z,18.23
2018-11-21T09:08:28.752Z,18.87
2018-11-21T09:10:57.473Z,17.17
2018-11-21T09:13:26.390Z,18.87
2018-11-21T09:15:55.029Z,20.30
2018-11-21T09:18:24.011Z,16.73
2018-11-21T09:20:52.704Z,20.17
2018-11-21T09:23:21.457Z,23.50
2018-11-21T09:25:50.261Z,20.37
2018-11-21T09:28:18.998Z,18.87
2018-11-21T09:30:47.643Z,19.90
2018-11-21T09:33:16.216Z,21.70
2018-11-21T09:35:44.928Z,19.33
2018-11-21T09:38:13.576Z,20.13
2018-11-21T09:40:42.417Z,19.00
2018-11-21T09:43:11.087Z,20.20
2018-11-21T09:45:39.739Z,20.10
2018-11-21T09:48:08.472Z,23.53
2018-11-21T09:50:41.201Z,17.60
2018-11-21T09:53:09.891Z,19.07
2018-11-21T09:55:40.513Z,22.23
2018-11-21T09:58:07.850Z,18.63
2018-11-21T10:01:12.817Z,19.47
2018-11-21T10:03:41.607Z,25.43
2018-11-21T10:06:13.302Z,29.07
2018-11-21T10:08:46.526Z,33.90
2018-11-21T10:11:15.551Z,24.23
2018-11-21T10:13:44.388Z,20.60
2018-11-21T10:16:13.261Z,21.63
2018-11-21T10:18:43.658Z,20.43
2018-11-21T10:21:14.066Z,21.63
2018-11-21T10:23:43.026Z,21.13
2018-11-21T10:26:11.915Z,20.80
2018-11-21T10:28:42.680Z,21.83
2018-11-21T10:31:11.426Z,22.80
2018-11-21T10:33:40.584Z,21.53
2018-11-21T10:36:10.241Z,20.47
2018-11-21T10:38:38.956Z,20.87
2018-11-21T10:41:07.624Z,21.93
2018-11-21T10:43:36.950Z,23.07
2018-11-21T10:46:06.325Z,21.27
2018-11-21T10:48:35.021Z,20.23
2018-11-21T10:51:03.853Z,21.20
2018-11-21T10:53:32.774Z,21.80
2018-11-21T10:56:01.689Z,21.30
2018-11-21T10:58:33.022Z,21.47
2018-11-21T11:01:20.723Z,23.03
2018-11-21T11:03:51.551Z,20.57
2018-11-21T11:06:38.459Z,22.27
2018-11-21T11:09:38.491Z,20.77
2018-11-21T11:12:24.955Z,20.77
2018-11-21T11:15:10.849Z,18.67
2018-11-21T11:17:59.622Z,23.10
2018-11-21T11:20:44.993Z,20.63
2018-11-21T11:23:32.744Z,21.47
2018-11-21T11:26:19.639Z,25.70
2018-11-21T11:28:59.210Z,22.00
2018-11-21T11:31:47.320Z,22.73
2018-11-21T11:34:22.457Z,22.80
2018-11-21T11:37:28.613Z,23.20
2018-11-21T11:40:22.122Z,23.27
2018-11-21T11:43:15.704Z,26.53
2018-11-21T11:46:21.529Z,24.43
2018-11-21T11:49:27.382Z,28.63
2018-11-21T11:52:33.444Z,27.17
2018-11-21T11:55:27.613Z,22.77
2018-11-21T11:58:13.892Z,23.93
2018-11-21T12:00:58.745Z,24.67
2018-11-21T12:03:57.747Z,25.90
2018-11-21T12:06:39.027Z,22.20
2018-11-21T12:09:26.842Z,24.53
2018-11-21T12:12:13.648Z,25.53
2018-11-21T12:15:10.097Z,27.63
2018-11-21T12:18:03.917Z,29.03
2018-11-21T12:21:10.408Z,30.77
2018-11-21T12:24:10.058Z,36.37
2018-11-21T12:26:44.936Z,32.33
2018-11-21T12:29:42.119Z,31.10
2018-11-21T12:32:28.025Z,27.63
2018-11-21T12:35:14.440Z,30.27
2018-11-21T12:38:14.727Z,29.20
2018-11-21T12:41:00.918Z,28.73
2018-11-21T12:43:42.544Z,27.70
2018-11-21T12:46:29.348Z,29.37
2018-11-21T12:49:17.394Z,29.90
2018-11-21T12:51:53.732Z,29.00
2018-11-21T12:54:53.883Z,30.40
2018-11-21T12:57:41.759Z,30.27
2018-11-21T13:00:22.260Z,29.03
2018-11-21T13:03:18.942Z,30.17
2018-11-21T13:06:06.837Z,31.20
2018-11-21T13:09:03.451Z,30.50
2018-11-21T13:11:43.506Z,31.67
2018-11-21T13:14:30.319Z,29.83
2018-11-21T13:17:18.998Z,31.10
2018-11-21T13:20:03.327Z,32.00
2018-11-21T13:22:40.537Z,29.73
2018-11-21T13:25:46.471Z,28.67
2018-11-21T13:28:49.369Z,26.97
2018-11-21T13:31:35.663Z,27.77
2018-11-21T13:34:23.661Z,29.07
2018-11-21T13:37:17.126Z,29.53
2018-11-21T13:40:12.052Z,28.77
2018-11-21T13:43:08.634Z,31.13
2018-11-21T13:46:14.702Z,28.73
2018-11-21T13:49:00.941Z,32.70
2018-11-21T13:52:01.077Z,27.73
2018-11-21T13:54:47.390Z,30.27
2018-11-21T13:57:16.881Z,30.77
2018-11-21T13:59:46.948Z,25.80
2018-11-21T14:02:15.688Z,26.27
2018-11-21T14:04:44.390Z,26.83
2018-11-21T14:07:13.155Z,27.47
2018-11-21T14:09:41.822Z,24.60
2018-11-21T14:12:10.544Z,25.50
2018-11-21T14:14:39.171Z,23.63
2018-11-21T14:17:09.127Z,27.20
2018-11-21T14:19:37.733Z,23.50
2018-11-21T14:22:06.459Z,24.60
2018-11-21T14:24:35.213Z,23.07
2018-11-21T14:27:03.937Z,26.00
2018-11-21T14:29:37.824Z,26.80
2018-11-21T14:32:06.790Z,24.30
2018-11-21T14:34:35.555Z,23.20
2018-11-21T14:37:04.849Z,21.27
2018-11-21T14:39:33.469Z,23.30
2018-11-21T14:42:02.053Z,24.23
2018-11-21T14:44:30.610Z,24.13
2018-11-21T14:47:00.938Z,20.03
2018-11-21T14:49:28.438Z,23.93
2018-11-21T14:51:57.130Z,25.27
2018-11-21T14:54:25.986Z,25.23
2018-11-21T14:56:54.849Z,22.17
2018-11-21T14:59:23.597Z,24.87
2018-11-21T15:01:52.161Z,18.80
2018-11-21T15:04:22.448Z,21.73
2018-11-21T15:06:51.412Z,23.57
2018-11-21T15:09:20.060Z,21.93
2018-11-21T15:11:48.891Z,24.53
2018-11-21T15:14:17.447Z,22.30
2018-11-21T15:16:46.185Z,23.63
2018-11-21T15:19:14.735Z,22.77
2018-11-21T15:21:43.967Z,23.43
2018-11-21T15:24:12.696Z,24.97
2018-11-21T15:26:41.370Z,22.87
2018-11-21T15:29:10.497Z,28.50
2018-11-21T15:31:39.309Z,21.47
2018-11-21T15:34:08.092Z,18.40
2018-11-21T15:36:36.706Z,20.43
2018-11-21T15:39:08.783Z,23.07
2018-11-21T15:41:37.698Z,27.00
2018-11-21T15:44:08.003Z,22.50
2018-11-21T15:46:37.010Z,25.17
2018-11-21T15:49:09.903Z,21.53
2018-11-21T15:51:40.331Z,24.03
2018-11-21T15:54:09.668Z,23.70
2018-11-21T15:56:38.740Z,20.40
2018-11-21T15:59:07.762Z,22.40
2018-11-21T16:01:36.451Z,22.27
2018-11-21T16:04:05.071Z,20.87
2018-11-21T16:06:33.599Z,21.17
2018-11-21T16:09:02.483Z,22.57
2018-11-21T16:11:31.172Z,23.77
2018-11-21T16:13:59.751Z,21.80
2018-11-21T16:16:28.292Z,19.90
2018-11-21T16:18:56.950Z,20.50
2018-11-21T16:21:25.745Z,20.43
2018-11-21T16:23:54.473Z,22.63
2018-11-21T16:26:23.549Z,21.07
2018-11-21T16:28:52.538Z,20.40
2018-11-21T16:31:21.175Z,21.00
2018-11-21T16:33:49.996Z,23.10
2018-11-21T16:36:18.746Z,20.07
2018-11-21T16:38:47.407Z,24.03
2018-11-21T16:41:16.012Z,22.03
2018-11-21T16:43:44.638Z,22.13
2018-11-21T16:46:13.528Z,20.27
2018-11-21T16:48:42.216Z,20.17
2018-11-21T16:51:10.693Z,20.90
2018-11-21T16:53:39.415Z,20.90
2018-11-21T16:56:08.511Z,21.13
2018-11-21T16:58:37.126Z,21.53
2018-11-21T17:01:06.164Z,22.40
2018-11-21T17:03:34.912Z,23.43
2018-11-21T17:06:03.592Z,22.37
2018-11-21T17:08:32.464Z,24.43
2018-11-21T17:11:01.186Z,22.97
2018-11-21T17:13:29.808Z,21.23
2018-11-21T17:15:58.351Z,21.17
2018-11-21T17:18:26.896Z,22.33
2018-11-21T17:20:55.696Z,21.20
2018-11-21T17:23:24.271Z,21.27
2018-11-21T17:25:52.872Z,21.23
2018-11-21T17:28:21.470Z,24.43
2018-11-21T17:30:50.358Z,21.50
2018-11-21T17:33:18.915Z,21.77
2018-11-21T17:35:47.473Z,21.60
2018-11-21T17:38:15.932Z,31.00
2018-11-21T17:40:45.334Z,21.63
2018-11-21T17:43:14.273Z,21.40
2018-11-21T17:45:43.269Z,20.27
2018-11-21T17:48:12.039Z,21.07
2018-11-21T17:50:40.658Z,20.67
2018-11-21T17:53:09.461Z,19.87
